Terminal Aerodrome Forecast
Issued by NWS

Home | Current Version | Previous Version | Text Only | Print | Product List | Glossary On
Versions: 1 2 3 4 5 6 7 8 9 10 11 12
000
FTUS42 KMLB 031732
TAFFPR
TAF
KFPR 031732Z 0318/0418 08008KT P6SM VCTS SCT025CB BKN080
     FM032100 09011KT P6SM VCSH FEW025 BKN100
     FM040000 09006KT P6SM FEW030 BKN120
     FM041500 05009KT P6SM BKN040=

USA.gov is the U.S. government's official web portal to all federal, state and local government web resources and services.